Time;durP1;ratioP1;P1;durP2;ratioP2;P2;SDS_P1;SDS_P2;PMS_P1;PMS_P2;Temp;Humidity;BMP_temperature;BMP_pressure;BME280_temperature;BME280_humidity;BME280_pressure;Samples;Min_cycle;Max_cycle;Signal;HPM_P1;HPM_P2
2022/01/20 00:01:48;;;;;;;9.07;0.60;;;4.50;99.90;;;;;;5014097;28;20058;-84
2022/01/20 00:04:39;;;;;;;14.90;2.25;;;4.60;99.90;;;;;;4996418;28;20053;-84
2022/01/20 00:26:17;;;;;;;3.53;0.82;;;4.30;99.90;;;;;;5005541;28;20057;-84
2022/01/20 00:28:45;;;;;;;12.48;1.98;;;4.30;99.90;;;;;;5012889;28;20077;-84
2022/01/20 00:31:25;;;;;;;6.60;0.98;;;4.30;99.90;;;;;;5005151;28;20041;-85
2022/01/20 00:33:58;;;;;;;17.50;3.47;;;4.30;99.90;;;;;;5017769;28;20072;-84
2022/01/20 00:39:01;;;;;;;12.10;2.92;;;4.20;99.90;;;;;;5027240;28;20049;-84
2022/01/20 00:41:27;;;;;;;8.07;2.75;;;4.30;99.90;;;;;;5005005;28;20103;-84
2022/01/20 00:43:52;;;;;;;16.25;1.80;;;4.30;99.90;;;;;;5002478;28;20064;-84
2022/01/20 00:46:18;;;;;;;25.25;3.78;;;4.30;99.90;;;;;;4998462;28;20037;-85
2022/01/20 00:48:44;;;;;;;11.88;1.95;;;4.30;99.90;;;;;;5015664;28;20045;-85
2022/01/20 00:51:09;;;;;;;14.52;1.92;;;4.30;99.90;;;;;;5015053;28;20100;-86
2022/01/20 00:53:35;;;;;;;7.60;1.63;;;4.30;99.90;;;;;;5011807;28;20165;-85
2022/01/20 00:56:01;;;;;;;9.77;1.90;;;4.30;99.90;;;;;;5026072;28;20054;-85
2022/01/20 00:58:27;;;;;;;18.08;2.55;;;4.30;99.90;;;;;;5004147;28;20049;-85
2022/01/20 01:00:52;;;;;;;8.68;1.35;;;4.40;99.90;;;;;;5011561;28;20144;-85
2022/01/20 01:03:18;;;;;;;13.75;2.33;;;4.40;99.90;;;;;;5004043;28;20068;-84
2022/01/20 01:06:35;;;;;;;10.23;1.52;;;4.40;99.90;;;;;;5019024;28;20029;-84
2022/01/20 01:08:32;;;;;;;15.82;2.35;;;4.50;99.90;;;;;;5018731;28;20947;-84
2022/01/20 01:10:58;;;;;;;12.25;1.63;;;4.60;99.90;;;;;;5022677;28;20051;-84
2022/01/20 01:13:26;;;;;;;10.38;1.70;;;4.60;99.90;;;;;;5001973;28;20172;-82
2022/01/20 01:15:52;;;;;;;9.65;2.38;;;4.70;99.90;;;;;;4997714;28;20540;-83
2022/01/20 01:23:34;;;;;;;0.30;0.30;;;4.70;99.90;;;;;;5019264;28;20050;-82
2022/01/20 01:26:01;;;;;;;3.17;0.60;;;4.60;99.90;;;;;;5003646;28;20132;-82
2022/01/20 01:28:30;;;;;;;7.55;3.05;;;4.50;99.90;;;;;;4996525;28;20050;-82
2022/01/20 01:31:15;;;;;;;4.63;1.50;;;4.30;99.90;;;;;;5001201;28;20046;-83
2022/01/20 01:33:51;;;;;;;5.82;1.42;;;4.20;99.90;;;;;;5017426;28;20046;-83
2022/01/20 01:36:20;;;;;;;5.00;1.05;;;4.10;99.90;;;;;;5006375;28;20406;-82
2022/01/20 01:38:47;;;;;;;5.68;1.08;;;4.10;99.90;;;;;;5005174;28;20054;-83
2022/01/20 01:41:16;;;;;;;4.22;0.95;;;4.00;99.90;;;;;;5001254;28;20049;-84
2022/01/20 01:43:46;;;;;;;2.03;0.88;;;3.90;99.90;;;;;;4998055;28;20549;-83
2022/01/20 01:46:14;;;;;;;16.55;3.08;;;3.90;99.90;;;;;;4997505;28;20490;-83
2022/01/20 01:48:43;;;;;;;11.52;1.75;;;4.00;99.90;;;;;;5011094;28;20450;-83
2022/01/20 01:51:10;;;;;;;21.75;2.15;;;3.90;99.90;;;;;;5006004;28;20766;-83
2022/01/20 01:53:37;;;;;;;8.43;1.70;;;3.90;99.90;;;;;;5006401;28;20038;-83
2022/01/20 01:56:04;;;;;;;8.23;1.25;;;4.00;99.90;;;;;;4999155;28;20054;-83
2022/01/20 01:58:29;;;;;;;4.32;1.20;;;4.00;99.90;;;;;;5002344;28;20124;-83
2022/01/20 02:00:56;;;;;;;21.50;2.47;;;4.10;99.90;;;;;;5005526;28;20140;-83
2022/01/20 02:03:23;;;;;;;5.40;0.98;;;4.10;99.90;;;;;;5016814;28;20044;-82
2022/01/20 02:08:28;;;;;;;6.50;3.03;;;4.20;99.90;;;;;;5027469;28;20147;-82
2022/01/20 02:19:12;;;;;;;8.48;1.60;;;4.20;99.90;;;;;;5010594;28;20050;-82
2022/01/20 02:22:04;;;;;;;6.97;2.53;;;4.30;99.90;;;;;;4995752;28;20405;-82
2022/01/20 02:24:31;;;;;;;5.75;0.82;;;4.30;99.90;;;;;;4996080;28;20058;-82
2022/01/20 02:26:57;;;;;;;4.13;1.20;;;4.40;99.90;;;;;;5018877;28;20084;-81
2022/01/20 02:29:23;;;;;;;5.85;1.60;;;4.40;99.90;;;;;;5009081;28;20054;-82
2022/01/20 02:31:57;;;;;;;6.05;1.33;;;4.30;99.90;;;;;;5004282;28;20111;-82
2022/01/20 02:34:24;;;;;;;3.40;1.52;;;4.20;99.90;;;;;;5007174;28;20406;-81
2022/01/20 02:36:51;;;;;;;7.38;1.33;;;4.20;99.90;;;;;;5001888;28;20111;-82
2022/01/20 02:40:04;;;;;;;11.45;2.00;;;4.10;99.90;;;;;;5002177;28;20049;-82
2022/01/20 02:45:02;;;;;;;3.42;1.08;;;4.00;99.90;;;;;;5016649;28;20520;-83
2022/01/20 02:47:31;;;;;;;14.52;2.83;;;4.00;99.90;;;;;;4997032;28;20042;-82
2022/01/20 02:49:57;;;;;;;6.50;2.10;;;3.90;99.90;;;;;;5026733;28;20423;-82
2022/01/20 02:52:24;;;;;;;14.32;2.50;;;3.90;99.90;;;;;;5001874;28;20045;-82
2022/01/20 02:54:57;;;;;;;21.73;6.60;;;3.90;99.90;;;;;;5013283;28;20132;-83
2022/01/20 02:57:24;;;;;;;27.45;4.32;;;4.00;99.90;;;;;;5017143;28;20053;-82
2022/01/20 02:59:50;;;;;;;14.77;2.28;;;4.00;99.90;;;;;;5008585;28;20529;-83
2022/01/20 03:02:16;;;;;;;12.02;3.10;;;4.10;99.90;;;;;;5000162;28;20038;-82
2022/01/20 03:04:41;;;;;;;22.00;3.08;;;4.10;99.90;;;;;;5004427;28;20033;-82
2022/01/20 03:07:08;;;;;;;17.52;3.92;;;4.20;99.90;;;;;;5017518;28;20049;-83
2022/01/20 03:09:33;;;;;;;20.48;3.17;;;4.20;99.90;;;;;;5009180;28;20045;-83
2022/01/20 03:12:00;;;;;;;8.68;2.33;;;4.20;99.90;;;;;;5007145;28;20053;-82
2022/01/20 03:14:25;;;;;;;21.20;3.10;;;4.20;99.90;;;;;;4990694;28;20100;-82
2022/01/20 03:16:51;;;;;;;13.13;3.10;;;4.20;99.90;;;;;;4997583;28;20049;-82
2022/01/20 03:19:17;;;;;;;11.65;2.35;;;4.20;99.90;;;;;;5008150;28;20038;-83
2022/01/20 03:21:44;;;;;;;16.05;3.50;;;4.20;99.90;;;;;;5019135;28;20037;-84
2022/01/20 03:24:10;;;;;;;10.85;2.65;;;4.10;99.90;;;;;;5000459;28;20048;-82
2022/01/20 03:26:37;;;;;;;8.90;2.58;;;4.10;99.90;;;;;;5003680;28;20049;-83
2022/01/20 03:29:05;;;;;;;15.60;2.75;;;4.10;99.90;;;;;;5026477;28;20045;-82
2022/01/20 03:31:31;;;;;;;8.65;1.73;;;4.10;99.90;;;;;;4999013;28;20042;-82
2022/01/20 03:34:00;;;;;;;12.15;3.22;;;4.10;99.90;;;;;;5011546;28;20073;-83
2022/01/20 03:36:26;;;;;;;31.88;1.38;;;4.10;99.90;;;;;;5010740;28;20107;-82
2022/01/20 03:38:52;;;;;;;11.25;2.20;;;4.10;99.90;;;;;;5002225;28;20049;-82
2022/01/20 03:41:19;;;;;;;6.07;1.63;;;4.10;99.90;;;;;;5007215;28;20423;-82
2022/01/20 03:43:44;;;;;;;9.52;1.65;;;4.10;99.90;;;;;;5007508;28;20088;-82
2022/01/20 03:46:13;;;;;;;16.50;2.92;;;4.10;99.90;;;;;;4999471;28;20053;-83
2022/01/20 03:48:51;;;;;;;7.97;1.92;;;4.20;99.90;;;;;;5001867;28;20091;-82
2022/01/20 03:51:21;;;;;;;1.77;0.90;;;4.20;99.90;;;;;;5011522;28;20139;-83
2022/01/20 03:53:51;;;;;;;26.60;4.95;;;4.20;99.90;;;;;;5012348;28;20033;-83
2022/01/20 03:56:19;;;;;;;0.45;0.40;;;4.20;99.90;;;;;;5009845;28;20073;-84
2022/01/20 03:58:45;;;;;;;8.88;1.67;;;4.20;99.90;;;;;;5011757;28;20080;-83
2022/01/20 04:01:12;;;;;;;7.20;1.58;;;4.20;99.90;;;;;;5005315;28;20065;-83
2022/01/20 04:03:37;;;;;;;1.80;1.02;;;4.10;99.90;;;;;;4995414;28;20053;-83
2022/01/20 04:06:03;;;;;;;4.03;0.90;;;4.10;99.90;;;;;;5006603;28;20042;-84
2022/01/20 04:08:32;;;;;;;8.20;2.55;;;4.10;99.90;;;;;;5010160;28;20045;-83
2022/01/20 04:11:00;;;;;;;12.60;1.13;;;4.10;99.90;;;;;;5007024;28;21181;-83
2022/01/20 04:13:30;;;;;;;11.60;1.95;;;4.00;99.90;;;;;;4995409;28;20542;-83
2022/01/20 04:15:59;;;;;;;4.03;0.68;;;4.00;99.90;;;;;;5002462;28;20049;-83
2022/01/20 04:18:27;;;;;;;5.68;1.58;;;4.00;99.90;;;;;;5024309;28;20277;-83
2022/01/20 04:20:54;;;;;;;5.03;1.30;;;4.00;99.90;;;;;;5009551;28;20121;-84
2022/01/20 04:23:19;;;;;;;1.40;0.75;;;3.90;99.90;;;;;;5013423;28;20042;-83
2022/01/20 04:25:45;;;;;;;6.47;1.60;;;3.80;99.90;;;;;;4997823;28;20053;-83
2022/01/20 04:28:11;;;;;;;6.80;1.88;;;3.80;99.90;;;;;;5007427;28;20494;-83
2022/01/20 04:30:36;;;;;;;7.80;2.15;;;3.80;99.90;;;;;;5019342;28;20081;-82
2022/01/20 04:33:02;;;;;;;7.57;2.30;;;3.70;99.90;;;;;;5019549;28;20041;-83
2022/01/20 04:35:28;;;;;;;8.18;1.80;;;3.80;99.90;;;;;;5021536;28;20046;-84
2022/01/20 04:37:55;;;;;;;3.70;1.13;;;3.80;99.90;;;;;;5003826;28;20042;-82
2022/01/20 04:40:21;;;;;;;5.93;1.85;;;3.80;99.90;;;;;;4995680;28;20049;-83
2022/01/20 04:42:48;;;;;;;4.38;1.30;;;3.80;99.90;;;;;;5017358;28;20052;-83
2022/01/20 04:45:21;;;;;;;1.48;1.25;;;3.80;99.90;;;;;;5020494;28;20041;-83
2022/01/20 04:58:24;;;;;;;9.00;1.95;;;3.80;99.90;;;;;;5025325;28;20053;-84
2022/01/20 05:00:50;;;;;;;13.70;2.33;;;3.80;99.90;;;;;;5003136;28;20050;-84
2022/01/20 05:03:16;;;;;;;1.58;1.27;;;3.80;99.90;;;;;;5024129;28;20183;-83
2022/01/20 05:05:41;;;;;;;11.80;2.30;;;3.80;99.90;;;;;;5006218;28;20064;-84
2022/01/20 05:08:07;;;;;;;9.40;2.00;;;3.90;99.90;;;;;;5000765;28;20478;-83
2022/01/20 05:10:34;;;;;;;6.65;1.70;;;3.90;99.90;;;;;;5002374;28;20049;-84
2022/01/20 05:13:09;;;;;;;4.32;1.25;;;3.70;99.90;;;;;;4996105;28;20069;-84
2022/01/20 05:15:34;;;;;;;11.90;1.40;;;3.50;99.90;;;;;;5017387;28;20052;-84
2022/01/20 05:18:00;;;;;;;11.13;2.00;;;3.40;99.90;;;;;;5012140;28;20033;-84
2022/01/20 05:20:26;;;;;;;5.32;1.55;;;3.20;99.90;;;;;;5022856;28;20480;-84
2022/01/20 05:22:52;;;;;;;6.63;1.23;;;3.00;99.90;;;;;;5003281;28;20615;-83
2022/01/20 05:25:17;;;;;;;4.15;1.40;;;2.90;99.90;;;;;;4996257;28;20597;-85
2022/01/20 05:27:43;;;;;;;3.78;1.10;;;2.80;99.90;;;;;;4998838;28;20046;-84
2022/01/20 05:30:10;;;;;;;13.27;2.47;;;2.80;99.90;;;;;;5003426;28;20053;-84
2022/01/20 05:32:36;;;;;;;12.73;1.95;;;2.70;99.90;;;;;;5027292;28;20184;-84
2022/01/20 05:35:01;;;;;;;11.68;4.53;;;2.70;99.90;;;;;;5014808;28;20664;-84
2022/01/20 05:37:27;;;;;;;5.30;0.88;;;2.70;99.90;;;;;;5015104;28;20054;-83
2022/01/20 05:39:53;;;;;;;16.45;2.38;;;2.70;99.90;;;;;;5027721;28;20049;-84
2022/01/20 05:42:18;;;;;;;6.43;2.38;;;2.70;99.90;;;;;;5028774;28;20049;-84
2022/01/20 05:44:49;;;;;;;13.45;2.10;;;2.70;99.90;;;;;;5015025;28;20050;-84
2022/01/20 05:47:15;;;;;;;0.82;0.55;;;2.70;99.90;;;;;;5008671;28;20053;-84
2022/01/20 05:49:40;;;;;;;7.78;2.03;;;2.70;99.90;;;;;;4999343;28;20042;-84
2022/01/20 05:52:06;;;;;;;10.75;2.60;;;2.70;99.90;;;;;;5003170;28;20597;-83
2022/01/20 05:54:31;;;;;;;19.60;3.67;;;2.70;99.90;;;;;;5001296;28;20254;-84
2022/01/20 05:56:57;;;;;;;3.15;1.33;;;2.70;99.90;;;;;;5020283;28;20053;-83
2022/01/20 05:59:23;;;;;;;8.23;1.80;;;2.80;99.90;;;;;;4993161;28;20042;-84
2022/01/20 06:01:56;;;;;;;8.85;1.45;;;2.80;99.90;;;;;;5008751;28;20128;-84
2022/01/20 06:04:21;;;;;;;11.65;2.10;;;2.90;99.90;;;;;;5015967;28;20045;-84
2022/01/20 06:06:47;;;;;;;23.35;1.75;;;3.00;99.90;;;;;;5007956;28;20513;-84
2022/01/20 06:09:13;;;;;;;9.88;1.50;;;3.10;99.90;;;;;;5003989;28;20034;-84
2022/01/20 06:11:38;;;;;;;18.20;3.28;;;3.20;99.90;;;;;;5001458;28;20041;-84
2022/01/20 06:14:04;;;;;;;8.63;2.63;;;3.30;99.90;;;;;;4996890;28;20042;-84
2022/01/20 06:16:31;;;;;;;12.35;2.33;;;3.30;99.90;;;;;;5013026;28;20049;-84
2022/01/20 06:18:57;;;;;;;3.30;0.93;;;3.30;99.90;;;;;;4996813;28;20053;-83
2022/01/20 06:21:22;;;;;;;8.38;2.63;;;3.20;99.90;;;;;;5006273;28;20046;-83
2022/01/20 06:23:49;;;;;;;3.22;1.02;;;3.20;99.90;;;;;;5020438;28;20045;-83
2022/01/20 06:26:14;;;;;;;9.48;3.33;;;3.20;99.90;;;;;;5020226;28;20034;-83
2022/01/20 06:28:40;;;;;;;15.05;2.58;;;3.20;99.90;;;;;;5019982;28;20111;-83
2022/01/20 06:31:06;;;;;;;13.18;2.03;;;3.20;99.90;;;;;;5003417;28;20037;-82
2022/01/20 06:33:32;;;;;;;8.18;1.88;;;3.20;99.90;;;;;;5007660;28;20096;-84
2022/01/20 06:35:58;;;;;;;3.13;1.10;;;3.20;99.90;;;;;;5009077;28;20204;-84
2022/01/20 06:38:23;;;;;;;6.82;1.67;;;3.20;99.90;;;;;;5010517;28;20045;-83
2022/01/20 06:40:49;;;;;;;3.63;2.85;;;3.30;99.90;;;;;;5009169;28;20088;-82
2022/01/20 06:43:15;;;;;;;7.28;1.50;;;3.20;99.90;;;;;;5004280;28;20220;-82
2022/01/20 06:45:41;;;;;;;6.13;2.00;;;3.20;99.90;;;;;;5003778;28;20045;-83
2022/01/20 06:48:07;;;;;;;8.40;2.35;;;3.20;99.90;;;;;;5006328;28;20041;-85
2022/01/20 06:50:33;;;;;;;3.85;1.20;;;3.10;99.90;;;;;;5006277;28;20046;-84
2022/01/20 06:52:58;;;;;;;5.15;0.93;;;3.10;99.90;;;;;;4997621;28;20075;-84
2022/01/20 06:55:24;;;;;;;5.07;1.35;;;3.10;99.90;;;;;;5002696;28;20494;-84
2022/01/20 06:57:50;;;;;;;6.82;2.47;;;3.10;99.90;;;;;;5022785;28;20624;-83
2022/01/20 07:00:20;;;;;;;11.63;1.45;;;3.10;99.90;;;;;;5025046;28;20056;-83
2022/01/20 07:02:46;;;;;;;7.18;1.77;;;3.10;99.90;;;;;;5003270;28;20381;-83
2022/01/20 07:05:15;;;;;;;5.50;1.35;;;3.10;99.90;;;;;;5013224;28;20395;-84
2022/01/20 07:07:41;;;;;;;3.72;1.63;;;3.00;99.90;;;;;;5003230;28;20042;-82
2022/01/20 07:10:09;;;;;;;10.77;2.45;;;3.00;99.90;;;;;;5025474;28;20132;-83
2022/01/20 07:12:35;;;;;;;10.93;1.25;;;3.00;99.90;;;;;;5019999;28;20041;-83
2022/01/20 07:15:00;;;;;;;5.72;0.88;;;3.00;99.90;;;;;;5004298;28;20751;-83
2022/01/20 07:17:26;;;;;;;2.10;1.42;;;3.10;99.90;;;;;;5008756;28;20052;-84
2022/01/20 07:19:52;;;;;;;12.93;2.75;;;3.20;99.90;;;;;;5025124;28;20056;-83
2022/01/20 07:22:17;;;;;;;16.05;2.25;;;3.20;99.90;;;;;;5008214;28;20464;-84
2022/01/20 07:24:43;;;;;;;4.30;0.65;;;3.30;99.90;;;;;;5006885;28;20038;-83
2022/01/20 07:27:09;;;;;;;12.60;3.40;;;3.30;99.90;;;;;;4999505;28;20065;-83
2022/01/20 07:29:34;;;;;;;3.20;1.38;;;3.30;99.90;;;;;;4998223;28;20045;-84
2022/01/20 07:32:03;;;;;;;3.13;1.13;;;3.20;99.90;;;;;;5000017;28;20065;-84
2022/01/20 07:34:30;;;;;;;11.68;2.53;;;3.20;99.90;;;;;;5011047;28;20065;-84
2022/01/20 07:36:55;;;;;;;6.18;1.55;;;3.10;99.90;;;;;;4994648;28;20401;-84
2022/01/20 07:39:21;;;;;;;6.55;0.75;;;3.10;99.90;;;;;;5000905;28;20046;-83
2022/01/20 07:41:47;;;;;;;28.45;2.53;;;3.10;99.90;;;;;;5009959;28;20445;-84
2022/01/20 07:44:13;;;;;;;5.93;1.73;;;3.10;99.90;;;;;;5006806;28;20041;-83
2022/01/20 07:46:39;;;;;;;8.93;2.00;;;3.10;99.90;;;;;;5005405;28;20050;-84
2022/01/20 07:49:05;;;;;;;7.30;1.95;;;3.10;99.90;;;;;;5016996;28;20119;-84
2022/01/20 07:51:30;;;;;;;8.57;1.42;;;3.10;99.90;;;;;;5021193;28;20037;-83
2022/01/20 07:53:56;;;;;;;6.65;1.52;;;3.10;99.90;;;;;;5014890;28;20052;-84
2022/01/20 07:56:22;;;;;;;9.27;2.22;;;3.00;99.90;;;;;;5002555;28;20172;-84
2022/01/20 07:58:47;;;;;;;11.00;1.83;;;3.00;99.90;;;;;;5008111;28;20041;-85
2022/01/20 08:01:13;;;;;;;4.65;0.93;;;3.00;99.90;;;;;;4998774;28;20072;-83
2022/01/20 08:03:39;;;;;;;18.10;1.88;;;3.00;99.90;;;;;;4998019;28;20129;-83
2022/01/20 08:06:04;;;;;;;5.70;1.63;;;3.00;99.90;;;;;;5005387;28;20100;-84
2022/01/20 08:08:30;;;;;;;10.30;2.05;;;3.10;99.90;;;;;;5014378;28;20050;-84
2022/01/20 08:10:55;;;;;;;13.48;2.97;;;3.30;99.90;;;;;;5000076;28;20545;-83
2022/01/20 08:13:21;;;;;;;8.60;1.48;;;3.40;99.90;;;;;;4992871;28;20051;-83
2022/01/20 08:15:47;;;;;;;11.80;2.08;;;3.40;99.90;;;;;;5004009;28;20129;-84
2022/01/20 08:18:13;;;;;;;9.77;1.73;;;3.30;99.90;;;;;;4999101;28;20041;-84
2022/01/20 08:20:39;;;;;;;10.13;2.90;;;3.30;99.90;;;;;;5008123;28;20111;-83
2022/01/20 08:23:05;;;;;;;13.15;1.70;;;3.30;99.90;;;;;;5009777;28;20178;-84
2022/01/20 08:25:30;;;;;;;14.93;3.42;;;3.40;99.90;;;;;;5008437;28;20068;-84
2022/01/20 08:27:56;;;;;;;26.98;4.70;;;3.40;99.90;;;;;;5006701;28;20042;-83
2022/01/20 08:30:24;;;;;;;12.68;2.60;;;3.50;99.90;;;;;;5006394;28;20053;-84
2022/01/20 08:32:50;;;;;;;9.70;2.47;;;3.50;99.90;;;;;;5023024;28;20057;-82
2022/01/20 08:35:18;;;;;;;7.68;1.98;;;3.40;99.90;;;;;;4999528;28;20468;-83
2022/01/20 08:37:45;;;;;;;15.68;2.85;;;3.30;99.90;;;;;;5013376;28;20466;-83
2022/01/20 08:40:16;;;;;;;23.67;3.20;;;3.20;99.90;;;;;;5009117;28;20056;-83
2022/01/20 08:42:44;;;;;;;17.73;2.95;;;3.20;99.90;;;;;;5013240;28;20069;-84
2022/01/20 08:45:13;;;;;;;14.57;2.80;;;3.10;99.90;;;;;;5026213;28;20065;-83
2022/01/20 08:47:39;;;;;;;12.73;2.28;;;3.10;99.90;;;;;;5009970;28;20140;-83
2022/01/20 08:50:06;;;;;;;3.33;0.85;;;3.00;99.90;;;;;;5012891;28;20521;-83
2022/01/20 08:52:32;;;;;;;12.40;0.95;;;2.90;99.90;;;;;;5009812;28;20100;-83
2022/01/20 08:55:00;;;;;;;4.78;1.08;;;2.80;99.90;;;;;;5009550;28;20045;-83
2022/01/20 08:57:26;;;;;;;11.50;1.15;;;2.70;99.90;;;;;;5010005;28;20046;-83
2022/01/20 08:59:53;;;;;;;2.05;0.93;;;2.70;99.90;;;;;;4993058;28;20042;-83
2022/01/20 09:02:19;;;;;;;9.82;1.88;;;2.70;99.90;;;;;;4993477;28;20050;-83
2022/01/20 09:04:45;;;;;;;7.65;1.00;;;2.70;99.90;;;;;;5015163;28;20041;-83
2022/01/20 09:07:10;;;;;;;8.00;1.80;;;3.10;99.90;;;;;;5009555;28;20569;-83
2022/01/20 09:09:41;;;;;;;2.97;1.20;;;3.60;99.90;;;;;;5009879;28;20053;-83
2022/01/20 09:17:29;;;;;;;11.00;2.90;;;5.00;99.90;;;;;;5025917;28;20054;-83
2022/01/20 09:19:55;;;;;;;8.73;1.83;;;5.10;99.90;;;;;;5028811;28;20827;-83
2022/01/20 09:22:22;;;;;;;5.90;2.03;;;4.70;99.90;;;;;;5029223;28;20047;-81
2022/01/20 09:24:47;;;;;;;5.95;1.85;;;4.30;99.90;;;;;;5009209;28;20501;-82
2022/01/20 09:27:14;;;;;;;10.48;1.70;;;3.80;99.90;;;;;;4993193;28;20050;-82
2022/01/20 09:29:40;;;;;;;3.00;1.05;;;3.40;99.90;;;;;;5009412;28;20046;-82
2022/01/20 09:32:09;;;;;;;0.45;0.45;;;3.10;99.90;;;;;;5009506;28;20041;-82
2022/01/20 09:34:34;;;;;;;1.90;1.08;;;2.90;99.90;;;;;;5007649;28;20045;-82
2022/01/20 09:37:00;;;;;;;7.18;1.63;;;2.80;99.90;;;;;;5012463;28;20045;-82
2022/01/20 09:39:26;;;;;;;4.95;2.40;;;2.70;99.90;;;;;;5012369;28;20045;-82
2022/01/20 09:41:51;;;;;;;13.60;2.75;;;2.70;99.90;;;;;;5012541;28;20049;-83
2022/01/20 09:44:19;;;;;;;10.73;1.83;;;2.70;99.90;;;;;;5011164;28;20060;-82
2022/01/20 09:46:46;;;;;;;6.05;1.23;;;2.90;99.90;;;;;;5013656;28;20050;-83
2022/01/20 09:49:13;;;;;;;7.20;1.92;;;3.30;99.90;;;;;;5024119;28;20060;-83
2022/01/20 09:51:40;;;;;;;12.30;1.80;;;3.70;99.90;;;;;;5012051;28;20050;-83
2022/01/20 09:54:06;;;;;;;5.70;1.27;;;4.10;99.90;;;;;;5025820;28;20053;-83
2022/01/20 09:56:32;;;;;;;3.13;1.08;;;4.40;99.90;;;;;;5025025;28;20038;-82
2022/01/20 09:58:58;;;;;;;12.80;2.60;;;4.30;99.90;;;;;;5007797;28;20537;-82
2022/01/20 10:01:34;;;;;;;13.10;2.28;;;4.00;99.90;;;;;;5025004;28;20080;-82
2022/01/20 10:04:00;;;;;;;14.55;3.13;;;3.60;99.90;;;;;;4998062;28;20049;-82
2022/01/20 10:06:26;;;;;;;5.90;2.00;;;3.30;99.90;;;;;;5025208;28;20115;-81
2022/01/20 10:08:59;;;;;;;10.77;1.98;;;3.10;99.90;;;;;;5008525;28;20050;-81
2022/01/20 10:11:24;;;;;;;;;;;3.00;99.90;;;;;;5019321;28;20055;-82
2022/01/20 10:13:54;;;;;;;1.95;0.70;;;2.90;99.90;;;;;;5017451;28;19927;-81
2022/01/20 10:16:20;;;;;;;5.72;1.38;;;2.80;99.90;;;;;;5008019;28;20057;-82
2022/01/20 10:18:48;;;;;;;4.53;1.25;;;2.70;99.90;;;;;;5007031;28;20413;-81
2022/01/20 10:21:14;;;;;;;4.40;1.95;;;2.60;99.90;;;;;;5007717;28;20129;-82
2022/01/20 10:23:42;;;;;;;8.82;1.83;;;2.60;99.90;;;;;;5007837;28;20137;-82
2022/01/20 10:26:23;;;;;;;10.55;2.05;;;2.60;99.90;;;;;;5028239;28;20163;-82
2022/01/20 10:29:04;;;;;;;5.97;2.08;;;2.70;99.90;;;;;;5005217;28;20048;-82
2022/01/20 10:31:35;;;;;;;11.40;2.20;;;2.90;99.90;;;;;;5008015;28;20112;-82
2022/01/20 10:34:01;;;;;;;3.88;1.40;;;3.00;99.90;;;;;;5027421;28;20695;-82
2022/01/20 10:36:27;;;;;;;9.32;1.80;;;3.00;99.90;;;;;;5027489;28;20124;-81
2022/01/20 10:38:58;;;;;;;6.30;1.85;;;3.10;99.90;;;;;;5028141;28;20132;-82
2022/01/20 10:41:36;;;;;;;10.93;1.85;;;3.10;99.90;;;;;;5008736;28;20475;-82
2022/01/20 10:44:16;;;;;;;6.05;1.50;;;3.20;99.90;;;;;;5006897;28;20046;-82
2022/01/20 10:46:52;;;;;;;2.05;1.05;;;3.20;99.90;;;;;;5010838;28;20116;-82
2022/01/20 10:49:19;;;;;;;5.53;1.55;;;3.20;99.90;;;;;;5011081;28;20096;-82
2022/01/20 10:52:01;;;;;;;12.05;3.53;;;3.50;99.90;;;;;;5026181;28;20421;-82
2022/01/20 10:54:35;;;;;;;14.07;2.55;;;3.60;99.90;;;;;;5007917;28;20049;-82
2022/01/20 10:57:01;;;;;;;12.50;2.65;;;3.70;99.90;;;;;;5007112;28;20782;-82
2022/01/20 10:59:26;;;;;;;10.45;2.55;;;3.80;99.90;;;;;;5007506;28;20042;-82
2022/01/20 11:02:07;;;;;;;8.05;2.33;;;4.10;99.90;;;;;;5014576;28;20142;-82
2022/01/20 11:04:34;;;;;;;8.43;2.25;;;4.40;99.90;;;;;;5022159;28;20351;-83
2022/01/20 11:07:04;;;;;;;5.88;1.30;;;4.40;99.90;;;;;;5026873;28;20110;-83
2022/01/20 11:09:33;;;;;;;4.00;1.50;;;4.50;99.90;;;;;;5007717;28;20159;-82
2022/01/20 11:12:00;;;;;;;12.85;3.15;;;4.50;99.90;;;;;;5009736;28;20107;-83
2022/01/20 11:14:26;;;;;;;8.20;2.45;;;4.50;99.90;;;;;;5010206;28;20748;-82
2022/01/20 11:16:52;;;;;;;15.07;1.85;;;4.50;99.90;;;;;;5023161;28;20176;-82
2022/01/20 11:19:19;;;;;;;6.25;1.50;;;4.70;99.90;;;;;;5007265;28;20050;-83
2022/01/20 11:21:46;;;;;;;12.60;0.88;;;4.90;99.90;;;;;;5007046;28;20049;-84
2022/01/20 11:24:20;;;;;;;3.40;0.88;;;5.00;99.90;;;;;;5007190;28;20132;-82
2022/01/20 11:26:56;;;;;;;4.72;2.25;;;5.10;99.90;;;;;;5007105;28;20069;-83
2022/01/20 11:29:25;;;;;;;12.80;2.28;;;5.30;99.90;;;;;;5009149;28;20540;-83
2022/01/20 11:31:52;;;;;;;10.48;2.03;;;5.40;99.90;;;;;;5021204;28;20041;-83
2022/01/20 11:34:20;;;;;;;17.23;3.28;;;5.50;99.90;;;;;;5001605;28;20052;-82
2022/01/20 11:36:47;;;;;;;13.85;2.72;;;5.40;99.90;;;;;;5010122;28;20064;-83
2022/01/20 11:39:13;;;;;;;10.70;1.77;;;5.10;99.90;;;;;;5007615;28;20081;-82
2022/01/20 11:41:46;;;;;;;4.50;1.17;;;4.70;99.90;;;;;;5005698;28;20134;-82
2022/01/20 11:44:15;;;;;;;7.38;1.77;;;4.40;99.90;;;;;;5007189;28;20399;-82
2022/01/20 11:46:45;;;;;;;6.55;1.58;;;4.30;99.90;;;;;;5012497;28;20124;-83
2022/01/20 11:49:13;;;;;;;3.80;1.42;;;4.30;99.90;;;;;;5024810;28;20046;-82
2022/01/20 11:51:47;;;;;;;1.17;1.05;;;4.20;99.90;;;;;;5006873;28;20050;-82
2022/01/20 11:54:17;;;;;;;5.20;1.60;;;4.30;99.90;;;;;;5023294;28;20120;-83
2022/01/20 11:56:44;;;;;;;6.65;1.80;;;4.50;99.90;;;;;;5007360;28;20749;-82
2022/01/20 11:59:12;;;;;;;3.92;1.48;;;4.70;99.90;;;;;;5008087;28;20046;-83
2022/01/20 12:01:48;;;;;;;4.95;1.20;;;4.80;99.90;;;;;;5026542;28;20045;-82
2022/01/20 12:04:15;;;;;;;4.10;1.23;;;4.80;99.90;;;;;;5010075;28;20060;-82
2022/01/20 12:06:46;;;;;;;1.77;0.70;;;5.00;99.90;;;;;;5014210;28;20045;-83
2022/01/20 12:09:14;;;;;;;5.15;2.20;;;5.00;99.90;;;;;;5009620;28;20120;-83
2022/01/20 12:11:45;;;;;;;5.45;1.30;;;5.00;99.90;;;;;;5009416;28;20080;-83
2022/01/20 12:14:12;;;;;;;14.02;2.42;;;5.20;99.90;;;;;;4998601;28;20053;-83
2022/01/20 12:16:40;;;;;;;10.43;2.38;;;5.50;99.90;;;;;;5014172;28;20136;-83
2022/01/20 12:19:09;;;;;;;7.10;2.00;;;5.60;99.90;;;;;;5013634;28;20049;-84
2022/01/20 12:21:36;;;;;;;8.10;2.13;;;5.70;99.90;;;;;;5009494;28;20123;-83
2022/01/20 12:24:01;;;;;;;27.90;2.00;;;5.80;99.90;;;;;;5007385;28;20034;-82
2022/01/20 12:26:35;;;;;;;1.80;0.93;;;5.80;99.90;;;;;;5006525;28;20048;-83
2022/01/20 12:29:07;;;;;;;14.90;2.78;;;5.70;99.90;;;;;;5009117;28;20037;-82
2022/01/20 12:31:48;;;;;;;6.97;3.53;;;5.80;99.90;;;;;;5019763;28;20088;-83
2022/01/20 12:34:14;;;;;;;14.60;3.08;;;5.90;99.90;;;;;;4997424;28;20044;-83
2022/01/20 12:36:39;;;;;;;16.75;4.60;;;6.00;99.90;;;;;;4996811;28;20050;-83
2022/01/20 12:39:05;;;;;;;4.78;1.95;;;6.20;99.90;;;;;;5017343;28;20207;-83
2022/01/20 12:41:32;;;;;;;8.38;3.97;;;6.20;99.90;;;;;;5001136;28;20719;-83
2022/01/20 12:44:07;;;;;;;10.68;4.35;;;6.10;99.90;;;;;;5008305;28;20042;-83
2022/01/20 12:46:39;;;;;;;5.40;1.60;;;5.90;99.90;;;;;;4998712;28;20085;-83
2022/01/20 12:49:14;;;;;;;6.25;1.23;;;5.70;99.90;;;;;;5000341;28;20045;-82
2022/01/20 12:51:43;;;;;;;10.10;2.90;;;5.50;99.90;;;;;;5009675;28;20071;-84
2022/01/20 12:54:21;;;;;;;7.50;2.75;;;5.30;99.90;;;;;;5020155;28;20044;-83
2022/01/20 12:56:50;;;;;;;8.43;1.45;;;5.10;99.90;;;;;;4989944;28;20156;-83
2022/01/20 12:59:27;;;;;;;3.55;2.28;;;4.90;99.90;;;;;;5007668;28;20100;-84
2022/01/20 13:01:56;;;;;;;8.15;2.53;;;4.70;99.90;;;;;;5017222;28;20045;-83
2022/01/20 13:04:24;;;;;;;13.20;2.47;;;4.60;99.90;;;;;;5018337;28;20038;-83
2022/01/20 13:07:01;;;;;;;11.65;2.30;;;4.80;99.90;;;;;;5009540;28;20051;-83
2022/01/20 13:09:51;;;;;;;10.50;2.55;;;5.00;99.90;;;;;;5009197;28;20037;-83
2022/01/20 13:12:30;;;;;;;18.00;2.42;;;5.10;99.90;;;;;;5024811;28;20118;-85
2022/01/20 13:14:55;;;;;;;5.28;1.67;;;5.10;99.90;;;;;;5003841;28;20080;-84
2022/01/20 13:17:22;;;;;;;5.22;1.70;;;5.10;99.90;;;;;;5013525;28;20632;-84
2022/01/20 13:19:48;;;;;;;7.43;1.75;;;5.00;99.90;;;;;;5011109;28;20045;-84
2022/01/20 13:22:40;;;;;;;4.15;1.05;;;4.90;99.90;;;;;;4999610;28;20121;-84
2022/01/20 13:25:11;;;;;;;6.32;2.22;;;4.90;99.90;;;;;;4993017;28;20081;-84
2022/01/20 13:27:48;;;;;;;7.28;1.95;;;4.80;99.90;;;;;;5016307;28;20136;-84
2022/01/20 13:30:28;;;;;;;11.85;2.30;;;4.80;99.90;;;;;;5020509;28;20059;-85
2022/01/20 13:32:54;;;;;;;2.95;1.75;;;4.90;99.90;;;;;;4994562;28;20467;-84
2022/01/20 13:35:20;;;;;;;11.57;2.45;;;5.00;99.90;;;;;;5003742;28;20049;-85
2022/01/20 13:38:00;;;;;;;20.77;3.03;;;5.20;99.90;;;;;;5026924;28;20052;-85
2022/01/20 13:40:25;;;;;;;16.83;2.22;;;5.10;99.90;;;;;;5012310;28;20042;-83
2022/01/20 13:45:43;;;;;;;3.63;1.10;;;4.20;99.90;;;;;;5001350;28;20079;-84
2022/01/20 13:48:09;;;;;;;2.95;1.25;;;3.90;99.90;;;;;;4992446;28;20052;-84
2022/01/20 13:50:41;;;;;;;15.05;1.90;;;3.80;99.90;;;;;;5009291;28;20048;-83
2022/01/20 13:53:21;;;;;;;2.53;1.75;;;3.80;99.90;;;;;;5008978;28;20042;-84
2022/01/20 13:55:48;;;;;;;7.45;2.38;;;4.00;99.90;;;;;;5007465;28;20473;-84
2022/01/20 13:58:28;;;;;;;8.25;2.17;;;4.30;99.90;;;;;;5025744;28;20140;-83